Back to Top

Language: 

My Weather Underground Personal Weather Station Historical Data with Graphs...

Delerius Weather Station Historical Data
Daily Summary for January 17, 2017 Units:  Metric    English   Both
« Previous Day
Next Day »
Daily Weekly Monthly Yearly Custom
  High: Low: Average:
Temperature: 7.7 °C 4.9 °C 6.4 °C
Dew Point: 7.1 °C 4.7 °C 6 °C
Humidity: 99 % 96 % 97 %
Wind Speed: 8 km/h 0 km/h 0.6 km/h
Wind Gust: 12.9 km/h - -
Wind:- - SSW
Pressure: 1035.4 hPa 1030.7 hPa -
Precipitation: 0.25 mm    
Historical Graphs
 
 
Tabular Data for January 17, 2017
Time Temperature Dew Point Pressure Wind Wind Speed Wind Gust Humidity Rainfall Rate (Hourly) solar Conditions
00:00 5.1 °C 4.8 °C 1030.7 hPa South 3.2 km/h 8 km/h 98 % 0 mm 0 W/m2
00:05 5.1 °C 4.8 °C 1031 hPa SSE 4.8 km/h 9.7 km/h 98 % 0 mm 0 W/m2
00:15 5.2 °C 4.9 °C 1031 hPa SSE 6.4 km/h 6.4 km/h 98 % 0 mm 0 W/m2
00:20 5.2 °C 4.9 °C 1031 hPa SE 8 km/h 8 km/h 98 % 0 mm 0 W/m2
00:25 5.1 °C 4.8 °C 1031 hPa SSE 8 km/h 8 km/h 98 % 0 mm 0 W/m2
00:30 5.1 °C 4.8 °C 1031 hPa South 4.8 km/h 4.8 km/h 98 % 0 mm 0 W/m2
00:40 5.1 °C 4.8 °C 1031 hPa South 1.6 km/h 1.6 km/h 98 % 0 mm 0 W/m2
00:45 5.1 °C 4.8 °C 1031 hPa South 1.6 km/h 6.4 km/h 98 % 0 mm 0 W/m2
00:50 5.1 °C 4.8 °C 1031.4 hPa SSW 1.6 km/h 1.6 km/h 98 % 0 mm 0 W/m2
00:55 5.1 °C 4.8 °C 1031.4 hPa SSW 3.2 km/h 3.2 km/h 98 % 0 mm 0 W/m2
01:00 5.1 °C 4.8 °C 1031.4 hPa SSW 3.2 km/h 4.8 km/h 98 % 0 mm 0 W/m2
01:05 5.1 °C 4.8 °C 1031.4 hPa SSW 3.2 km/h 12.9 km/h 98 % 0 mm 0 W/m2
01:10 5.1 °C 4.8 °C 1031.7 hPa SSW 3.2 km/h 3.2 km/h 98 % 0 mm 0 W/m2
01:20 5.1 °C 4.8 °C 1031.7 hPa SSE 3.2 km/h 12.9 km/h 98 % 0 mm 0 W/m2
01:25 5.1 °C 4.8 °C 1031.7 hPa SSE 3.2 km/h 12.9 km/h 98 % 0 mm 0 W/m2
01:30 5.1 °C 4.8 °C 1031.7 hPa SSE 1.6 km/h 1.6 km/h 98 % 0 mm 0 W/m2
01:35 5.1 °C 4.8 °C 1031.7 hPa Calm   12.9 km/h 98 % 0 mm 0 W/m2
01:40 5.1 °C 4.8 °C 1031.7 hPa Calm   12.9 km/h 98 % 0 mm 0 W/m2
01:50 5.1 °C 4.8 °C 1031.7 hPa Calm   12.9 km/h 98 % 0 mm 0 W/m2
01:55 5.1 °C 4.8 °C 1031.7 hPa Calm   12.9 km/h 98 % 0 mm 0 W/m2
02:00 5.1 °C 4.8 °C 1031.7 hPa Calm   12.9 km/h 98 % 0 mm 0 W/m2
02:05 5.1 °C 4.8 °C 1031.7 hPa Calm   12.9 km/h 98 % 0 mm 0 W/m2
02:10 5.1 °C 4.8 °C 1032.1 hPa Calm   12.9 km/h 98 % 0 mm 0 W/m2
02:15 5.1 °C 4.8 °C 1032.1 hPa Calm   12.9 km/h 98 % 0 mm 0 W/m2
02:20 5.1 °C 4.8 °C 1032.1 hPa Calm   12.9 km/h 98 % 0 mm 0 W/m2
02:30 5 °C 4.7 °C 1032.1 hPa Calm   12.9 km/h 98 % 0 mm 0 W/m2
02:35 5 °C 4.7 °C 1032.1 hPa Calm   12.9 km/h 98 % 0 mm 0 W/m2
02:40 5.1 °C 4.8 °C 1032.1 hPa Calm   12.9 km/h 98 % 0 mm 0 W/m2
02:45 5.1 °C 4.8 °C 1032.1 hPa Calm   12.9 km/h 98 % 0 mm 0 W/m2
02:50 5 °C 4.7 °C 1032.1 hPa Calm   12.9 km/h 98 % 0 mm 0 W/m2
02:55 5 °C 4.7 °C 1032.1 hPa Calm   12.9 km/h 98 % 0 mm 0 W/m2
03:00 5 °C 4.7 °C 1032.1 hPa SE 1.6 km/h 12.9 km/h 98 % 0 mm 0 W/m2
03:10 5 °C 4.7 °C 1032.1 hPa SE 1.6 km/h 1.6 km/h 98 % 0 mm 0 W/m2
03:15 5 °C 4.7 °C 1032.1 hPa Calm   12.9 km/h 98 % 0 mm 0 W/m2
03:20 5 °C 4.7 °C 1032.1 hPa Calm   12.9 km/h 98 % 0 mm 0 W/m2
03:25 5 °C 4.7 °C 1032.1 hPa Calm   12.9 km/h 98 % 0 mm 0 W/m2
03:30 4.9 °C 4.7 °C 1032.1 hPa ENE 1.6 km/h 1.6 km/h 98 % 0 mm 0 W/m2
03:40 4.9 °C 4.7 °C 1031.7 hPa SSE 1.6 km/h 1.6 km/h 98 % 0 mm 0 W/m2
03:45 4.9 °C 4.7 °C 1032.1 hPa SW 1.6 km/h 12.9 km/h 98 % 0 mm 0 W/m2
03:50 4.9 °C 4.7 °C 1032.1 hPa Calm   12.9 km/h 98 % 0 mm 0 W/m2
03:55 4.9 °C 4.7 °C 1032.1 hPa Calm   12.9 km/h 98 % 0 mm 0 W/m2
04:00 4.9 °C 4.7 °C 1032.1 hPa SW 1.6 km/h 1.6 km/h 98 % 0 mm 0 W/m2
04:05 5 °C 4.7 °C 1032.1 hPa WSW 3.2 km/h 3.2 km/h 98 % 0 mm 0 W/m2
04:10 5 °C 4.7 °C 1032.1 hPa WSW 3.2 km/h 3.2 km/h 98 % 0 mm 0 W/m2
04:20 5.1 °C 4.8 °C 1032.1 hPa Calm   12.9 km/h 98 % 0 mm 0 W/m2
04:25 5.1 °C 4.8 °C 1032.1 hPa Calm   12.9 km/h 98 % 0 mm 0 W/m2
04:30 5.1 °C 4.8 °C 1032.1 hPa Calm   12.9 km/h 98 % 0 mm 0 W/m2
04:35 5.1 °C 4.8 °C 1032.1 hPa Calm   12.9 km/h 98 % 0 mm 0 W/m2
04:40 5.1 °C 4.8 °C 1032.1 hPa Calm   12.9 km/h 98 % 0 mm 0 W/m2
04:45 5.1 °C 4.8 °C 1032.1 hPa Calm   12.9 km/h 98 % 0 mm 0 W/m2
04:55 5.2 °C 4.9 °C 1032.1 hPa Calm   12.9 km/h 98 % 0 mm 0 W/m2
05:00 5.2 °C 4.9 °C 1032.1 hPa Calm   12.9 km/h 98 % 0 mm 0 W/m2
05:05 5.2 °C 4.9 °C 1032.1 hPa Calm   12.9 km/h 98 % 0 mm 0 W/m2
05:10 5.2 °C 4.9 °C 1032.1 hPa Calm   12.9 km/h 98 % 0 mm 0 W/m2
05:15 5.2 °C 4.9 °C 1032.1 hPa Calm   12.9 km/h 98 % 0 mm 0 W/m2
05:20 5.2 °C 4.9 °C 1032.1 hPa Calm   12.9 km/h 98 % 0 mm 0 W/m2
05:25 5.2 °C 4.9 °C 1032.1 hPa Calm   12.9 km/h 98 % 0 mm 0 W/m2
05:35 5.2 °C 5.1 °C 1032.1 hPa Calm   12.9 km/h 99 % 0 mm 0 W/m2
05:40 5.2 °C 5.1 °C 1032.1 hPa Calm   12.9 km/h 99 % 0 mm 0 W/m2
05:45 5.3 °C 5 °C 1032.4 hPa Calm   12.9 km/h 98 % 0 mm 0 W/m2
05:50 5.3 °C 5 °C 1032.4 hPa Calm   12.9 km/h 98 % 0 mm 0 W/m2
05:55 5.3 °C 5 °C 1032.4 hPa Calm   12.9 km/h 98 % 0 mm 0 W/m2
06:00 5.3 °C 5 °C 1032.4 hPa Calm   12.9 km/h 98 % 0 mm 0 W/m2
06:10 5.3 °C 5 °C 1032.4 hPa Calm   12.9 km/h 98 % 0 mm 0 W/m2
06:15 5.3 °C 5 °C 1032.4 hPa Calm   12.9 km/h 98 % 0 mm 0 W/m2
06:25 5.3 °C 5 °C 1032.4 hPa South 1.6 km/h 12.9 km/h 98 % 0 mm 0 W/m2
06:30 5.3 °C 5 °C 1032.4 hPa Calm   12.9 km/h 98 % 0 mm 0 W/m2
06:35 5.2 °C 4.9 °C 1032.4 hPa Calm   12.9 km/h 98 % 0 mm 0 W/m2
06:45 5.2 °C 4.9 °C 1032.4 hPa Calm   12.9 km/h 98 % 0 mm 0 W/m2
06:50 5.2 °C 4.9 °C 1032.4 hPa Calm   12.9 km/h 98 % 0 mm 0 W/m2
07:00 5.2 °C 4.9 °C 1032.7 hPa Calm   12.9 km/h 98 % 0 mm 0 W/m2
07:05 5.1 °C 4.8 °C 1032.7 hPa South 1.6 km/h 12.9 km/h 98 % 0 mm 0 W/m2
07:10 5.1 °C 4.8 °C 1032.7 hPa South 1.6 km/h 1.6 km/h 98 % 0 mm 0 W/m2
07:15 5.1 °C 4.8 °C 1032.7 hPa Calm   12.9 km/h 98 % 0 mm 0 W/m2
07:25 5.1 °C 4.8 °C 1032.7 hPa Calm   12.9 km/h 98 % 0 mm 0 W/m2
07:35 5.1 °C 4.8 °C 1033.1 hPa Calm   12.9 km/h 98 % 0 mm 0 W/m2
07:40 5.1 °C 4.8 °C 1033.1 hPa Calm   12.9 km/h 98 % 0 mm 0 W/m2
07:45 5.1 °C 4.8 °C 1033.1 hPa Calm   12.9 km/h 98 % 0 mm 0 W/m2
07:50 5.2 °C 4.9 °C 1033.1 hPa Calm   12.9 km/h 98 % 0 mm 0 W/m2
07:55 5.2 °C 4.9 °C 1033.1 hPa Calm   12.9 km/h 98 % 0 mm 0 W/m2
08:00 5.2 °C 4.9 °C 1033.4 hPa Calm   12.9 km/h 98 % 0 mm 0 W/m2
08:05 5.2 °C 4.9 °C 1033.4 hPa Calm   12.9 km/h 98 % 0 mm 0 W/m2
08:15 5.2 °C 5.1 °C 1033.4 hPa Calm   12.9 km/h 99 % 0 mm 0 W/m2
08:20 5.3 °C 5.1 °C 1033.4 hPa Calm   12.9 km/h 99 % 0 mm 0 W/m2
08:25 5.3 °C 5.1 °C 1033.4 hPa Calm   12.9 km/h 99 % 0 mm 0 W/m2
08:30 5.3 °C 5.1 °C 1033.4 hPa Calm   12.9 km/h 99 % 0 mm 0 W/m2
08:35 5.3 °C 5.1 °C 1033.4 hPa Calm   12.9 km/h 99 % 0 mm 5 W/m2
08:40 5.3 °C 5 °C 1033.4 hPa Calm   12.9 km/h 98 % 0 mm 9 W/m2
08:50 5.3 °C 5 °C 1033.7 hPa Calm   12.9 km/h 98 % 0 mm 12 W/m2
08:55 5.3 °C 5 °C 1033.7 hPa Calm   12.9 km/h 98 % 0 mm 14 W/m2
09:00 5.3 °C 5.1 °C 1033.7 hPa Calm   12.9 km/h 98 % 0 mm 14 W/m2
09:05 5.3 °C 5.1 °C 1033.7 hPa Calm   12.9 km/h 98 % 0 mm 14 W/m2
09:10 5.3 °C 5.1 °C 1033.7 hPa Calm   12.9 km/h 98 % 0 mm 14 W/m2
09:15 5.3 °C 5 °C 1033.7 hPa SSE 3.2 km/h 12.9 km/h 98 % 0 mm 16 W/m2
09:20 5.3 °C 5 °C 1033.7 hPa SSE 3.2 km/h 3.2 km/h 98 % 0 mm 18 W/m2
09:25 5.3 °C 5.1 °C 1033.7 hPa Calm   12.9 km/h 98 % 0 mm 21 W/m2
09:35 5.3 °C 5.1 °C 1033.7 hPa Calm   12.9 km/h 98 % 0 mm 23 W/m2
09:40 5.4 °C 5.1 °C 1033.7 hPa South 1.6 km/h 12.9 km/h 98 % 0 mm 23 W/m2
09:45 5.4 °C 5.1 °C 1034.1 hPa South 1.6 km/h 12.9 km/h 98 % 0 mm 28 W/m2
09:50 5.4 °C 5.1 °C 1034.1 hPa SSW 1.6 km/h 1.6 km/h 98 % 0 mm 32 W/m2
09:55 5.4 °C 5.2 °C 1034.1 hPa SSW 1.6 km/h 12.9 km/h 98 % 0 mm 35 W/m2
10:00 5.5 °C 5.2 °C 1034.1 hPa Calm   12.9 km/h 98 % 0 mm 39 W/m2
10:05 5.5 °C 5.2 °C 1034.1 hPa SSW 1.6 km/h 12.9 km/h 98 % 0 mm 40 W/m2
10:15 5.6 °C 5.3 °C 1034.1 hPa SW 1.6 km/h 12.9 km/h 98 % 0 mm 46 W/m2
10:20 5.6 °C 5.4 °C 1034.1 hPa SW 1.6 km/h 12.9 km/h 99 % 0 mm 47 W/m2
10:25 5.6 °C 5.4 °C 1034.1 hPa SW 1.6 km/h 12.9 km/h 99 % 0 mm 49 W/m2
10:30 5.7 °C 5.4 °C 1034.1 hPa Calm   12.9 km/h 98 % 0 mm 49 W/m2
10:35 5.7 °C 5.4 °C 1034.1 hPa Calm   12.9 km/h 98 % 0 mm 47 W/m2
10:40 5.8 °C 5.5 °C 1034.1 hPa Calm   12.9 km/h 98 % 0 mm 49 W/m2
10:50 5.9 °C 5.8 °C 1034.4 hPa Calm   12.9 km/h 99 % 0 mm 67 W/m2
10:55 6 °C 5.8 °C 1034.1 hPa Calm   12.9 km/h 99 % 0 mm 72 W/m2
11:00 6 °C 5.8 °C 1034.1 hPa Calm   12.9 km/h 99 % 0 mm 74 W/m2
11:05 6.1 °C 5.9 °C 1034.1 hPa Calm   12.9 km/h 99 % 0 mm 74 W/m2
11:10 6.2 °C 5.9 °C 1034.1 hPa Calm   12.9 km/h 98 % 0 mm 72 W/m2
11:20 6.3 °C 6.2 °C 1034.1 hPa Calm   12.9 km/h 99 % 0 mm 76 W/m2
11:25 6.4 °C 6.1 °C 1034.1 hPa Calm   12.9 km/h 98 % 0 mm 77 W/m2
11:30 6.5 °C 6.2 °C 1034.1 hPa Calm   12.9 km/h 98 % 0 mm 84 W/m2
11:35 6.6 °C 6.4 °C 1034.1 hPa SW 1.6 km/h 12.9 km/h 99 % 0 mm 84 W/m2
11:40 6.6 °C 6.4 °C 1034.1 hPa WNW 3.2 km/h 3.2 km/h 99 % 0 mm 76 W/m2
11:45 6.7 °C 6.6 °C 1034.1 hPa WSW 3.2 km/h 12.9 km/h 99 % 0 mm 69 W/m2
11:50 6.7 °C 6.4 °C 1034.1 hPa WSW 1.6 km/h 12.9 km/h 98 % 0 mm 62 W/m2
12:00 6.7 °C 6.4 °C 1034.1 hPa SW 1.6 km/h 12.9 km/h 98 % 0 mm 77 W/m2
12:05 6.8 °C 6.5 °C 1034.1 hPa SW 3.2 km/h 12.9 km/h 98 % 0 mm 83 W/m2
12:10 6.8 °C 6.6 °C 1034.1 hPa SW 1.6 km/h 12.9 km/h 98 % 0 mm 90 W/m2
12:15 6.9 °C 6.6 °C 1034.1 hPa SW 3.2 km/h 12.9 km/h 98 % 0 mm 84 W/m2
12:20 6.9 °C 6.7 °C 1034.1 hPa SW 3.2 km/h 12.9 km/h 98 % 0 mm 79 W/m2
12:25 7 °C 6.7 °C 1034.1 hPa SW 3.2 km/h 12.9 km/h 98 % 0 mm 77 W/m2
12:35 7.1 °C 6.8 °C 1033.7 hPa WSW 4.8 km/h 12.9 km/h 98 % 0 mm 72 W/m2
12:45 7.1 °C 6.8 °C 1033.7 hPa WSW 3.2 km/h 12.9 km/h 98 % 0 mm 72 W/m2
12:50 7.1 °C 6.8 °C 1034.1 hPa SW 3.2 km/h 3.2 km/h 98 % 0 mm 72 W/m2
12:55 7.2 °C 6.9 °C 1033.7 hPa SW 3.2 km/h 12.9 km/h 98 % 0 mm 74 W/m2
13:00 7.2 °C 6.8 °C 1033.7 hPa SW 1.6 km/h 12.9 km/h 97 % 0 mm 72 W/m2
13:05 7.3 °C 7 °C 1033.7 hPa SSW 1.6 km/h 12.9 km/h 98 % 0 mm 76 W/m2
13:15 7.3 °C 6.8 °C 1033.7 hPa SSW 3.2 km/h 12.9 km/h 97 % 0 mm 63 W/m2
13:25 7.3 °C 6.9 °C 1033.7 hPa SSW 1.6 km/h 12.9 km/h 97 % 0 mm 51 W/m2
13:30 7.4 °C 6.9 °C 1033.7 hPa Calm   12.9 km/h 97 % 0 mm 47 W/m2
13:35 7.4 °C 7 °C 1033.7 hPa Calm   12.9 km/h 97 % 0 mm 51 W/m2
13:40 7.5 °C 7.1 °C 1033.7 hPa Calm   12.9 km/h 97 % 0 mm 51 W/m2
13:45 7.5 °C 7.1 °C 1033.7 hPa Calm   12.9 km/h 97 % 0 mm 49 W/m2
13:50 7.6 °C 7.1 °C 1033.7 hPa Calm   12.9 km/h 97 % 0 mm 44 W/m2
13:55 7.6 °C 7.1 °C 1033.7 hPa Calm   12.9 km/h 97 % 0 mm 40 W/m2
14:05 7.6 °C 7 °C 1033.7 hPa Calm   12.9 km/h 96 % 0 mm 39 W/m2
14:10 7.7 °C 7.1 °C 1033.7 hPa Calm   12.9 km/h 96 % 0 mm 32 W/m2
14:15 7.7 °C 7.1 °C 1033.7 hPa Calm   12.9 km/h 96 % 0 mm 25 W/m2
14:20 7.7 °C 7.1 °C 1033.7 hPa Calm   12.9 km/h 96 % 0 mm 23 W/m2
14:25 7.6 °C 7 °C 1033.7 hPa SSW 1.6 km/h 12.9 km/h 96 % 0 mm 25 W/m2
14:30 7.6 °C 7 °C 1033.7 hPa Calm   12.9 km/h 96 % 0 mm 23 W/m2
14:35 7.6 °C 7 °C 1033.7 hPa Calm   12.9 km/h 96 % 0 mm 25 W/m2
14:40 7.6 °C 7 °C 1033.7 hPa Calm   12.9 km/h 96 % 0 mm 23 W/m2
14:50 7.6 °C 6.9 °C 1033.7 hPa SSW 1.6 km/h 12.9 km/h 96 % 0 mm 23 W/m2
14:55 7.5 °C 6.9 °C 1033.7 hPa SSW 1.6 km/h 12.9 km/h 96 % 0 mm 23 W/m2
15:00 7.5 °C 6.9 °C 1033.7 hPa SSW 1.6 km/h 12.9 km/h 96 % 0 mm 23 W/m2
15:05 7.5 °C 6.9 °C 1033.7 hPa SSW 1.6 km/h 12.9 km/h 96 % 0 mm 21 W/m2
15:10 7.5 °C 6.9 °C 1033.7 hPa South 1.6 km/h 12.9 km/h 96 % 0 mm 19 W/m2
15:15 7.4 °C 6.8 °C 1033.7 hPa South 1.6 km/h 12.9 km/h 96 % 0 mm 18 W/m2
15:20 7.4 °C 6.8 °C 1033.7 hPa Calm   12.9 km/h 96 % 0 mm 18 W/m2
15:21 7.5 °C 6.9 °C 1033.7 hPa South 1.6 km/h -1607.7 km/h 96 % 0 mm 20 W/m2
15:26 7.4 °C 6.8 °C 1033.7 hPa Calm   -1607.7 km/h 96 % 0 mm 17 W/m2
15:30 7.4 °C 6.8 °C 1033.7 hPa Calm   12.9 km/h 96 % 0 mm 14 W/m2
15:31 7.4 °C 6.8 °C 1033.7 hPa Calm   -1607.7 km/h 96 % 0 mm 17 W/m2
15:35 7.4 °C 6.8 °C 1033.7 hPa South 1.6 km/h 12.9 km/h 96 % 0 mm 12 W/m2
15:36 7.4 °C 6.8 °C 1033.7 hPa Calm   -1607.7 km/h 96 % 0 mm 17 W/m2
15:40 7.3 °C 6.7 °C 1033.7 hPa South 1.6 km/h 1.6 km/h 96 % 0 mm 11 W/m2
15:41 7.3 °C 6.7 °C 1033.7 hPa Calm   -1607.7 km/h 96 % 0 mm 11 W/m2
15:45 7.3 °C 6.7 °C 1033.7 hPa Calm   12.9 km/h 96 % 0 mm 9 W/m2
15:46 7.3 °C 6.7 °C 1033.7 hPa Calm   -1607.7 km/h 96 % 0 mm 11 W/m2
15:50 7.3 °C 6.7 °C 1033.7 hPa Calm   12.9 km/h 96 % 0 mm 9 W/m2
15:51 7.3 °C 6.7 °C 1033.7 hPa Calm   -1607.7 km/h 96 % 0 mm 11 W/m2
15:55 7.2 °C 6.6 °C 1033.7 hPa Calm   12.9 km/h 96 % 0 mm 7 W/m2
15:56 7.2 °C 6.6 °C 1034.1 hPa South 1.6 km/h -1607.7 km/h 96 % 0 mm 7 W/m2
16:01 7.2 °C 6.6 °C 1034.1 hPa South 1.6 km/h -1607.7 km/h 96 % 0 mm 7 W/m2
16:05 7.2 °C 6.6 °C 1033.7 hPa South 1.6 km/h 12.9 km/h 96 % 0 mm 5 W/m2
16:06 7.2 °C 6.6 °C 1034.1 hPa South 1.6 km/h -1607.7 km/h 96 % 0 mm 7 W/m2
16:10 7.2 °C 6.6 °C 1033.7 hPa Calm   12.9 km/h 96 % 0 mm 0 W/m2
16:11 7.2 °C 6.6 °C 1033.7 hPa Calm   -1607.7 km/h 96 % 0 mm 3 W/m2
16:15 7.2 °C 6.6 °C 1033.7 hPa Calm   12.9 km/h 96 % 0 mm 0 W/m2
16:16 7.2 °C 6.6 °C 1033.7 hPa Calm   -1607.7 km/h 96 % 0 mm 3 W/m2
16:20 7.2 °C 6.6 °C 1033.7 hPa Calm   12.9 km/h 96 % 0 mm 0 W/m2
16:21 7.2 °C 6.6 °C 1033.7 hPa Calm   -1607.7 km/h 96 % 0 mm 3 W/m2
16:25 7.2 °C 6.6 °C 1033.7 hPa Calm   12.9 km/h 96 % 0 mm 0 W/m2
16:26 7.2 °C 6.8 °C 1033.7 hPa Calm   -1607.7 km/h 97 % 0 mm 0 W/m2
16:30 7.2 °C 6.8 °C 1033.7 hPa Calm   12.9 km/h 97 % 0 mm 0 W/m2
16:31 7.2 °C 6.8 °C 1033.7 hPa Calm   -1607.7 km/h 97 % 0 mm 0 W/m2
16:36 7.2 °C 6.8 °C 1033.7 hPa Calm   -1607.7 km/h 97 % 0 mm 0 W/m2
16:40 7.2 °C 6.8 °C 1034.1 hPa Calm   12.9 km/h 97 % 0 mm 0 W/m2
16:41 7.2 °C 6.8 °C 1034.1 hPa Calm   -1607.7 km/h 97 % 0 mm 0 W/m2
16:45 7.2 °C 6.8 °C 1034.1 hPa Calm   12.9 km/h 97 % 0 mm 0 W/m2
16:46 7.2 °C 6.8 °C 1034.1 hPa Calm   -1607.7 km/h 97 % 0 mm 0 W/m2
16:50 7.2 °C 6.8 °C 1034.1 hPa Calm   12.9 km/h 97 % 0 mm 0 W/m2
16:51 7.2 °C 6.8 °C 1034.1 hPa Calm   -1607.7 km/h 97 % 0 mm 0 W/m2
16:55 7.2 °C 6.8 °C 1034.1 hPa Calm   12.9 km/h 97 % 0 mm 0 W/m2
16:56 7.2 °C 6.8 °C 1034.1 hPa Calm   -1607.7 km/h 97 % 0 mm 0 W/m2
17:00 7.2 °C 6.8 °C 1034.1 hPa Calm   12.9 km/h 97 % 0 mm 0 W/m2
17:01 7.2 °C 6.8 °C 1034.1 hPa Calm   -1607.7 km/h 97 % 0 mm 0 W/m2
17:05 7.2 °C 6.8 °C 1034.1 hPa Calm   12.9 km/h 97 % 0 mm 0 W/m2
17:06 7.2 °C 6.8 °C 1034.1 hPa Calm   -1607.7 km/h 97 % 0 mm 0 W/m2
17:10 7.2 °C 6.8 °C 1034.1 hPa Calm   12.9 km/h 97 % 0 mm 0 W/m2
17:11 7.2 °C 6.8 °C 1034.1 hPa Calm   -1607.7 km/h 97 % 0 mm 0 W/m2
17:16 7.2 °C 6.8 °C 1034.1 hPa Calm   -1607.7 km/h 97 % 0 mm 0 W/m2
17:20 7.2 °C 6.8 °C 1034.1 hPa Calm   12.9 km/h 97 % 0 mm 0 W/m2
17:21 7.2 °C 6.8 °C 1034.1 hPa Calm   -1607.7 km/h 97 % 0 mm 0 W/m2
17:25 7.2 °C 6.8 °C 1034.1 hPa Calm   12.9 km/h 97 % 0 mm 0 W/m2
17:26 7.2 °C 6.8 °C 1034.1 hPa Calm   -1607.7 km/h 97 % 0 mm 0 W/m2
17:31 7.2 °C 6.8 °C 1034.1 hPa Calm   -1607.7 km/h 97 % 0 mm 0 W/m2
17:35 7.2 °C 6.7 °C 1034.4 hPa Calm   12.9 km/h 97 % 0 mm 0 W/m2
17:36 7.2 °C 6.8 °C 1034.1 hPa Calm   -1607.7 km/h 97 % 0 mm 0 W/m2
17:40 7.2 °C 6.7 °C 1034.4 hPa Calm   12.9 km/h 97 % 0 mm 0 W/m2
17:41 7.2 °C 6.7 °C 1034.4 hPa Calm   -1607.7 km/h 97 % 0 mm 0 W/m2
17:45 7.2 °C 6.7 °C 1034.4 hPa Calm   12.9 km/h 97 % 0 mm 0 W/m2
17:46 7.2 °C 6.7 °C 1034.4 hPa Calm   -1607.7 km/h 97 % 0 mm 0 W/m2
17:51 7.2 °C 6.7 °C 1034.4 hPa Calm   -1607.7 km/h 97 % 0 mm 0 W/m2
17:55 7.2 °C 6.7 °C 1034.4 hPa Calm   12.9 km/h 97 % 0 mm 0 W/m2
17:56 7.2 °C 6.7 °C 1034.4 hPa Calm   -1607.7 km/h 97 % 0 mm 0 W/m2
18:01 7.2 °C 6.7 °C 1034.4 hPa Calm   -1607.7 km/h 97 % 0 mm 0 W/m2
18:05 7.2 °C 6.8 °C 1034.4 hPa Calm   12.9 km/h 97 % 0 mm 0 W/m2
18:06 7.2 °C 6.7 °C 1034.4 hPa Calm   -1607.7 km/h 97 % 0 mm 0 W/m2
18:10 7.2 °C 6.8 °C 1034.4 hPa Calm   12.9 km/h 97 % 0 mm 0 W/m2
18:11 7.2 °C 6.8 °C 1034.4 hPa Calm   -1607.7 km/h 97 % 0 mm 0 W/m2
18:15 7.2 °C 6.8 °C 1034.4 hPa Calm   12.9 km/h 97 % 0 mm 0 W/m2
18:16 7.2 °C 6.8 °C 1034.4 hPa Calm   -1607.7 km/h 97 % 0 mm 0 W/m2
18:20 7.2 °C 6.7 °C 1034.4 hPa Calm   12.9 km/h 97 % 0 mm 0 W/m2
18:21 7.2 °C 6.8 °C 1034.4 hPa Calm   -1607.7 km/h 97 % 0 mm 0 W/m2
18:25 7.2 °C 6.7 °C 1034.4 hPa Calm   12.9 km/h 97 % 0 mm 0 W/m2
18:26 7.2 °C 6.7 °C 1034.8 hPa Calm   -1607.7 km/h 97 % 0 mm 0 W/m2
18:30 7.2 °C 6.7 °C 1034.8 hPa Calm   12.9 km/h 97 % 0 mm 0 W/m2
18:31 7.2 °C 6.7 °C 1034.8 hPa Calm   -1607.7 km/h 97 % 0 mm 0 W/m2
18:35 7.2 °C 6.7 °C 1034.4 hPa Calm   12.9 km/h 97 % 0 mm 0 W/m2
18:36 7.2 °C 6.7 °C 1034.8 hPa Calm   -1607.7 km/h 97 % 0 mm 0 W/m2
18:41 7.1 °C 6.7 °C 1034.4 hPa Calm   -1607.7 km/h 97 % 0 mm 0 W/m2
18:45 7.1 °C 6.7 °C 1034.4 hPa Calm   12.9 km/h 97 % 0 mm 0 W/m2
18:46 7.1 °C 6.7 °C 1034.4 hPa Calm   -1607.7 km/h 97 % 0 mm 0 W/m2
18:50 7.1 °C 6.7 °C 1034.4 hPa Calm   12.9 km/h 97 % 0 mm 0 W/m2
18:51 7.1 °C 6.7 °C 1034.4 hPa Calm   -1607.7 km/h 97 % 0 mm 0 W/m2
18:55 7.1 °C 6.7 °C 1034.4 hPa Calm   12.9 km/h 97 % 0 mm 0 W/m2
18:56 7.1 °C 6.7 °C 1034.4 hPa Calm   -1607.7 km/h 97 % 0 mm 0 W/m2
19:00 7.1 °C 6.7 °C 1034.4 hPa Calm   12.9 km/h 97 % 0 mm 0 W/m2
19:01 7.1 °C 6.7 °C 1034.4 hPa Calm   -1607.7 km/h 97 % 0 mm 0 W/m2
19:05 7.1 °C 6.7 °C 1034.4 hPa Calm   12.9 km/h 97 % 0 mm 0 W/m2
19:06 7.1 °C 6.7 °C 1034.4 hPa Calm   -1607.7 km/h 97 % 0 mm 0 W/m2
19:10 7.1 °C 6.6 °C 1034.4 hPa Calm   12.9 km/h 97 % 0 mm 0 W/m2
19:11 7.1 °C 6.6 °C 1034.8 hPa Calm   -1607.7 km/h 97 % 0 mm 0 W/m2
19:16 7.1 °C 6.6 °C 1034.8 hPa Calm   -1607.7 km/h 97 % 0 mm 0 W/m2
19:20 7.1 °C 6.6 °C 1034.8 hPa Calm   12.9 km/h 97 % 0 mm 0 W/m2
19:21 7.1 °C 6.6 °C 1034.8 hPa Calm   -1607.7 km/h 97 % 0 mm 0 W/m2
19:25 7 °C 6.6 °C 1034.8 hPa Calm   12.9 km/h 97 % 0 mm 0 W/m2
19:26 7 °C 6.6 °C 1034.8 hPa Calm   -1607.7 km/h 97 % 0 mm 0 W/m2
19:30 7 °C 6.6 °C 1034.8 hPa Calm   12.9 km/h 97 % 0 mm 0 W/m2
19:31 7 °C 6.6 °C 1034.8 hPa Calm   -1607.7 km/h 97 % 0 mm 0 W/m2
19:36 7 °C 6.6 °C 1034.8 hPa Calm   -1607.7 km/h 97 % 0 mm 0 W/m2
19:40 6.9 °C 6.5 °C 1034.8 hPa Calm   12.9 km/h 97 % 0 mm 0 W/m2
19:41 6.9 °C 6.5 °C 1034.8 hPa Calm   -1607.7 km/h 97 % 0 mm 0 W/m2
19:45 6.9 °C 6.5 °C 1034.8 hPa Calm   12.9 km/h 97 % 0 mm 0 W/m2
19:46 6.9 °C 6.5 °C 1034.8 hPa Calm   -1607.7 km/h 97 % 0 mm 0 W/m2
19:50 6.9 °C 6.5 °C 1034.8 hPa South 1.6 km/h 1.6 km/h 97 % 0 mm 0 W/m2
19:51 6.9 °C 6.5 °C 1034.8 hPa Calm   -1607.7 km/h 97 % 0 mm 0 W/m2
19:56 6.9 °C 6.4 °C 1034.8 hPa South 1.6 km/h -1607.7 km/h 97 % 0 mm 0 W/m2
20:00 6.9 °C 6.4 °C 1034.8 hPa Calm   12.9 km/h 97 % 0 mm 0 W/m2
20:01 6.9 °C 6.4 °C 1034.8 hPa South 1.6 km/h -1607.7 km/h 97 % 0 mm 0 W/m2
20:05 6.8 °C 6.4 °C 1034.8 hPa Calm   12.9 km/h 97 % 0 mm 0 W/m2
20:06 6.9 °C 6.4 °C 1034.8 hPa South 1.6 km/h -1607.7 km/h 97 % 0 mm 0 W/m2
20:10 6.8 °C 6.4 °C 1034.8 hPa Calm   12.9 km/h 97 % 0 mm 0 W/m2
20:11 6.8 °C 6.4 °C 1034.8 hPa Calm   -1607.7 km/h 97 % 0 mm 0 W/m2
20:15 6.8 °C 6.3 °C 1034.8 hPa Calm   12.9 km/h 97 % 0 mm 0 W/m2
20:16 6.8 °C 6.4 °C 1034.8 hPa Calm   -1607.7 km/h 97 % 0 mm 0 W/m2
20:20 6.8 °C 6.3 °C 1034.8 hPa Calm   12.9 km/h 97 % 0 mm 0 W/m2
20:21 6.8 °C 6.4 °C 1034.8 hPa Calm   -1607.7 km/h 97 % 0 mm 0 W/m2
20:25 6.8 °C 6.3 °C 1034.8 hPa Calm   12.9 km/h 97 % 0 mm 0 W/m2
20:26 6.8 °C 6.3 °C 1034.8 hPa Calm   -1607.7 km/h 97 % 0 mm 0 W/m2
20:31 6.8 °C 6.3 °C 1034.8 hPa Calm   -1607.7 km/h 97 % 0 mm 0 W/m2
20:35 6.7 °C 6.3 °C 1034.8 hPa Calm   12.9 km/h 97 % 0 mm 0 W/m2
20:36 6.8 °C 6.3 °C 1034.8 hPa Calm   -1607.7 km/h 97 % 0 mm 0 W/m2
20:40 6.7 °C 6.3 °C 1034.8 hPa Calm   12.9 km/h 97 % 0 mm 0 W/m2
20:41 6.7 °C 6.3 °C 1034.8 hPa Calm   -1607.7 km/h 97 % 0 mm 0 W/m2
20:45 6.7 °C 6.3 °C 1034.8 hPa Calm   12.9 km/h 97 % 0 mm 0 W/m2
20:46 6.7 °C 6.3 °C 1034.8 hPa Calm   -1607.7 km/h 97 % 0 mm 0 W/m2
20:50 6.7 °C 6.3 °C 1034.8 hPa Calm   12.9 km/h 97 % 0 mm 0 W/m2
20:51 6.7 °C 6.3 °C 1034.8 hPa Calm   -1607.7 km/h 97 % 0 mm 0 W/m2
20:55 6.7 °C 6.3 °C 1034.8 hPa Calm   12.9 km/h 97 % 0 mm 0 W/m2
20:56 6.7 °C 6.3 °C 1034.8 hPa Calm   -1607.7 km/h 97 % 0 mm 0 W/m2
21:00 6.7 °C 6.3 °C 1034.8 hPa Calm   12.9 km/h 97 % 0 mm 0 W/m2
21:01 6.7 °C 6.3 °C 1034.8 hPa Calm   -1607.7 km/h 97 % 0 mm 0 W/m2
21:05 6.7 °C 6.3 °C 1034.8 hPa Calm   12.9 km/h 97 % 0 mm 0 W/m2
21:06 6.7 °C 6.3 °C 1034.8 hPa Calm   -1607.7 km/h 97 % 0 mm 0 W/m2
21:10 6.7 °C 6.3 °C 1034.8 hPa Calm   12.9 km/h 97 % 0 mm 0 W/m2
21:11 6.8 °C 6.3 °C 1035.1 hPa Calm   -1607.7 km/h 97 % 0 mm 0 W/m2
21:16 6.8 °C 6.3 °C 1035.1 hPa Calm   -1607.7 km/h 97 % 0 mm 0 W/m2
21:20 6.8 °C 6.3 °C 1035.1 hPa Calm   12.9 km/h 97 % 0 mm 0 W/m2
21:21 6.8 °C 6.3 °C 1035.1 hPa Calm   -1607.7 km/h 97 % 0 mm 0 W/m2
21:26 6.8 °C 6.3 °C 1035.1 hPa Calm   -1607.7 km/h 97 % 0 mm 0 W/m2
21:30 6.8 °C 6.3 °C 1035.1 hPa Calm   12.9 km/h 97 % 0 mm 0 W/m2
21:31 6.8 °C 6.3 °C 1035.1 hPa Calm   -1607.7 km/h 97 % 0 mm 0 W/m2
21:35 6.8 °C 6.3 °C 1035.1 hPa Calm   12.9 km/h 97 % 0 mm 0 W/m2
21:36 6.8 °C 6.3 °C 1035.1 hPa Calm   -1607.7 km/h 97 % 0 mm 0 W/m2
21:40 6.8 °C 6.3 °C 1035.1 hPa Calm   12.9 km/h 97 % 0 mm 0 W/m2
21:41 6.8 °C 6.3 °C 1035.1 hPa South 1.6 km/h -1607.7 km/h 97 % 0 mm 0 W/m2
21:45 6.8 °C 6.3 °C 1035.1 hPa East 3.2 km/h 12.9 km/h 97 % 0 mm 0 W/m2
21:46 6.8 °C 6.3 °C 1035.1 hPa South 1.6 km/h -1607.7 km/h 97 % 0 mm 0 W/m2
21:51 6.8 °C 6.3 °C 1035.1 hPa South 1.6 km/h -1607.7 km/h 97 % 0 mm 0 W/m2
21:55 6.7 °C 6.2 °C 1035.1 hPa East 3.2 km/h 12.9 km/h 97 % 0 mm 0 W/m2
21:56 6.7 °C 6.3 °C 1035.1 hPa East 1.6 km/h -1607.7 km/h 97 % 0 mm 0 W/m2
22:00 6.7 °C 6.2 °C 1035.1 hPa Calm   12.9 km/h 97 % 0 mm 0 W/m2
22:01 6.7 °C 6.3 °C 1035.1 hPa East 1.6 km/h -1607.7 km/h 97 % 0 mm 0 W/m2
22:05 6.6 °C 6.2 °C 1035.4 hPa Calm   12.9 km/h 97 % 0 mm 0 W/m2
22:06 6.7 °C 6.3 °C 1035.1 hPa East 1.6 km/h -1607.7 km/h 97 % 0 mm 0 W/m2
22:10 6.6 °C 6.2 °C 1035.4 hPa Calm   12.9 km/h 97 % 0 mm 0 W/m2
22:11 6.7 °C 6.2 °C 1035.4 hPa Calm   -1607.7 km/h 97 % 0 mm 0 W/m2
22:15 6.6 °C 6.2 °C 1035.4 hPa Calm   12.9 km/h 97 % 0 mm 0 W/m2
22:16 6.7 °C 6.2 °C 1035.4 hPa Calm   -1607.7 km/h 97 % 0 mm 0 W/m2
22:20 6.6 °C 6.2 °C 1035.4 hPa Calm   12.9 km/h 97 % 0 mm 0 W/m2
22:21 6.7 °C 6.2 °C 1035.4 hPa Calm   -1607.7 km/h 97 % 0 mm 0 W/m2
22:26 6.6 °C 6.2 °C 1035.4 hPa Calm   -1607.7 km/h 97 % 0.25 mm 0 W/m2
22:30 6.6 °C 6.2 °C 1035.4 hPa Calm   12.9 km/h 97 % 0 mm 0 W/m2
22:31 6.6 °C 6.2 °C 1035.4 hPa Calm   -1607.7 km/h 97 % 0.25 mm 0 W/m2
22:36 6.6 °C 6.2 °C 1035.4 hPa Calm   -1607.7 km/h 97 % 0.25 mm 0 W/m2
22:40 6.6 °C 6.2 °C 1035.4 hPa Calm   12.9 km/h 97 % 0 mm 0 W/m2
22:41 6.6 °C 6.2 °C 1035.1 hPa Calm   -1607.7 km/h 97 % 0.25 mm 0 W/m2
22:45 6.6 °C 6.2 °C 1035.1 hPa Calm   12.9 km/h 97 % 0 mm 0 W/m2
22:46 6.6 °C 6.2 °C 1035.1 hPa Calm   -1607.7 km/h 97 % 0.25 mm 0 W/m2
22:50 6.7 °C 6.2 °C 1035.1 hPa East 1.6 km/h 12.9 km/h 97 % 0 mm 0 W/m2
22:51 6.6 °C 6.2 °C 1035.1 hPa Calm   -1607.7 km/h 97 % 0.25 mm 0 W/m2
22:55 6.6 °C 6.2 °C 1035.1 hPa WNW 1.6 km/h 12.9 km/h 97 % 0 mm 0 W/m2
22:56 6.7 °C 6.2 °C 1035.1 hPa WNW 3.2 km/h -1607.7 km/h 97 % 0.25 mm 0 W/m2
23:00 6.7 °C 6.2 °C 1035.1 hPa West 3.2 km/h 3.2 km/h 97 % 0 mm 0 W/m2
23:01 6.7 °C 6.2 °C 1035.1 hPa WNW 3.2 km/h -1607.7 km/h 97 % 0.25 mm 0 W/m2
23:05 6.7 °C 6.2 °C 1035.1 hPa West 1.6 km/h 12.9 km/h 97 % 0 mm 0 W/m2
23:06 6.7 °C 6.2 °C 1035.1 hPa WNW 3.2 km/h -1607.7 km/h 97 % 0.25 mm 0 W/m2
23:11 6.6 °C 6.2 °C 1035.1 hPa Calm   -1607.7 km/h 97 % 0.25 mm 0 W/m2
23:15 6.6 °C 6.2 °C 1035.1 hPa Calm   12.9 km/h 97 % 0 mm 0 W/m2
23:16 6.6 °C 6.2 °C 1035.1 hPa Calm   -1607.7 km/h 97 % 0.25 mm 0 W/m2
23:20 6.6 °C 6.2 °C 1035.1 hPa Calm   12.9 km/h 97 % 0 mm 0 W/m2
23:21 6.6 °C 6.2 °C 1035.1 hPa Calm   -1607.7 km/h 97 % 0.25 mm 0 W/m2
23:25 6.6 °C 6.2 °C 1035.1 hPa WNW 3.2 km/h 12.9 km/h 97 % 0 mm 0 W/m2
23:26 6.6 °C 6.2 °C 1035.1 hPa WNW 3.2 km/h -1607.7 km/h 97 % 0 mm 0 W/m2
23:30 6.7 °C 6.2 °C 1035.1 hPa WNW 3.2 km/h 3.2 km/h 97 % 0 mm 0 W/m2
23:31 6.6 °C 6.2 °C 1035.1 hPa WNW 3.2 km/h -1607.7 km/h 97 % 0 mm 0 W/m2
23:35 6.7 °C 6.4 °C 1035.1 hPa West 3.2 km/h 12.9 km/h 98 % 0 mm 0 W/m2
23:36 6.6 °C 6.2 °C 1035.1 hPa WNW 3.2 km/h -1607.7 km/h 97 % 0 mm 0 W/m2
23:40 6.7 °C 6.4 °C 1035.1 hPa West 1.6 km/h 1.6 km/h 98 % 0 mm 0 W/m2
23:41 6.7 °C 6.4 °C 1035.1 hPa West 1.6 km/h -1607.7 km/h 98 % 0 mm 0 W/m2
23:46 6.7 °C 6.4 °C 1035.1 hPa West 1.6 km/h -1607.7 km/h 98 % 0 mm 0 W/m2
23:50 6.7 °C 6.4 °C 1035.1 hPa Calm   12.9 km/h 98 % 0 mm 0 W/m2
23:51 6.7 °C 6.4 °C 1035.1 hPa West 1.6 km/h -1607.7 km/h 98 % 0 mm 0 W/m2
23:55 6.7 °C 6.4 °C 1035.1 hPa Calm   12.9 km/h 98 % 0 mm 0 W/m2
23:56 6.7 °C 6.4 °C 1035.1 hPa WNW 3.2 km/h -1607.7 km/h 98 % 0 mm 0 W/m2
Delerius-Weather
Compliments of Weather Underground - 2.75 mb

Data updates at regular intervals.